Time;durP1;ratioP1;P1;durP2;ratioP2;P2;SDS_P1;SDS_P2;PMS_P1;PMS_P2;Temp;Humidity;BMP_temperature;BMP_pressure;BME280_temperature;BME280_humidity;BME280_pressure;Samples;Min_cycle;Max_cycle;Signal;HPM_P1;HPM_P2
2020/12/28 00:00:34;;;;;;;1.60;1.40;;;;;;;3.19;78.50;97274.66;5087349;28;20212;-67
2020/12/28 00:03:00;;;;;;;2.00;1.30;;;;;;;3.18;78.71;97272.16;5088097;28;20204;-66
2020/12/28 00:05:27;;;;;;;1.93;1.80;;;;;;;3.17;78.76;97271.31;5092358;28;20204;-66
2020/12/28 00:07:54;;;;;;;1.50;1.40;;;;;;;3.18;78.43;97277.41;5089607;28;20224;-66
2020/12/28 00:10:21;;;;;;;1.47;1.37;;;;;;;3.13;78.41;97275.16;5092260;28;20649;-66
2020/12/28 00:12:47;;;;;;;1.50;1.00;;;;;;;3.14;78.62;97277.66;5091338;28;20290;-65
2020/12/28 00:15:22;;;;;;;1.40;1.10;;;;;;;3.10;78.71;97268.38;5092830;28;20315;-65
2020/12/28 00:17:49;;;;;;;1.40;1.30;;;;;;;3.10;78.90;97280.69;5092595;28;20195;-66
2020/12/28 00:20:16;;;;;;;1.53;1.20;;;;;;;3.11;78.96;97274.47;5090499;28;20204;-64
2020/12/28 00:22:43;;;;;;;1.30;1.17;;;;;;;3.10;79.40;97278.88;5088126;28;20208;-65
2020/12/28 00:25:09;;;;;;;2.17;1.33;;;;;;;3.08;79.23;97270.31;5089048;28;20269;-67
2020/12/28 00:27:35;;;;;;;1.23;1.13;;;;;;;3.08;78.91;97279.97;5088967;28;20231;-65
2020/12/28 00:30:03;;;;;;;1.13;1.03;;;;;;;3.07;79.25;97278.31;5090337;28;20196;-67
2020/12/28 00:32:29;;;;;;;2.77;1.20;;;;;;;3.07;79.57;97280.94;5090641;28;20211;-65
2020/12/28 00:34:55;;;;;;;0.90;0.90;;;;;;;3.08;79.45;97279.97;5091960;28;20216;-64
2020/12/28 00:37:21;;;;;;;1.43;1.00;;;;;;;3.09;79.65;97279.03;5092992;28;20208;-65
2020/12/28 00:39:48;;;;;;;1.00;1.00;;;;;;;3.09;79.99;97281.66;5092266;28;20254;-64
2020/12/28 00:42:14;;;;;;;1.03;0.90;;;;;;;3.09;80.16;97271.13;5092072;28;20204;-65
2020/12/28 00:44:40;;;;;;;1.10;1.10;;;;;;;3.08;80.08;97275.56;5092505;28;20223;-64
2020/12/28 00:47:08;;;;;;;0.80;0.70;;;;;;;3.08;79.87;97275.56;5092198;28;20220;-65
2020/12/28 00:49:34;;;;;;;1.00;0.90;;;;;;;3.08;80.02;97280.81;5092467;28;20207;-64
2020/12/28 00:52:00;;;;;;;1.30;0.80;;;;;;;3.09;80.21;97279.84;5086609;28;20203;-66
2020/12/28 00:54:26;;;;;;;0.90;0.80;;;;;;;3.08;80.00;97278.19;5086695;28;20227;-65
2020/12/28 00:56:53;;;;;;;1.67;0.93;;;;;;;3.09;80.22;97273.75;5092208;28;20209;-66
2020/12/28 00:59:19;;;;;;;1.17;0.90;;;;;;;3.09;80.16;97276.41;5075644;28;20219;-65
2020/12/28 01:01:45;;;;;;;1.10;1.00;;;;;;;3.09;80.07;97271.97;5090210;28;20212;-67
2020/12/28 01:04:11;;;;;;;0.70;0.70;;;;;;;3.10;79.73;97270.16;5089895;28;20228;-64
2020/12/28 01:06:42;;;;;;;0.83;0.77;;;;;;;3.08;79.93;97275.56;5085057;28;20232;-65
2020/12/28 01:09:08;;;;;;;0.70;0.70;;;;;;;3.10;80.54;97286.78;5087311;28;20204;-65
2020/12/28 01:11:34;;;;;;;0.67;0.60;;;;;;;3.12;79.87;97279.59;5093160;28;20204;-65
2020/12/28 01:14:01;;;;;;;0.60;0.60;;;;;;;3.12;80.55;97287.47;5092573;28;20236;-65
2020/12/28 01:16:27;;;;;;;0.53;0.53;;;;;;;3.14;80.30;97282.09;5092097;28;20204;-65
2020/12/28 01:18:53;;;;;;;0.87;0.87;;;;;;;3.14;80.45;97275.03;5091115;28;20200;-65
2020/12/28 01:21:20;;;;;;;0.60;0.60;;;;;;;3.17;79.98;97273.94;5089528;28;20210;-66
2020/12/28 01:23:46;;;;;;;0.80;0.80;;;;;;;3.20;80.04;97267.59;5080110;28;20234;-64
2020/12/28 01:26:12;;;;;;;0.60;0.60;;;;;;;3.21;80.82;97272.72;5091953;28;20227;-66
2020/12/28 01:28:38;;;;;;;0.57;0.57;;;;;;;3.23;80.09;97267.28;5090810;28;20287;-66
2020/12/28 01:31:05;;;;;;;0.53;0.53;;;;;;;3.26;80.12;97269.66;5091463;28;20203;-67
2020/12/28 01:33:31;;;;;;;0.50;0.50;;;;;;;3.26;80.85;97267.88;5090036;28;20761;-64
2020/12/28 01:35:57;;;;;;;0.53;0.53;;;;;;;3.29;80.16;97256.25;5090990;28;20549;-66
2020/12/28 01:38:23;;;;;;;0.53;0.53;;;;;;;3.30;80.73;97255.28;5091431;28;20581;-65
2020/12/28 01:40:49;;;;;;;0.60;0.60;;;;;;;3.30;80.85;97266.63;5092063;28;20204;-66
2020/12/28 01:43:16;;;;;;;0.50;0.50;;;;;;;3.32;80.95;97248.09;5085156;28;20232;-66
2020/12/28 01:45:43;;;;;;;0.83;0.63;;;;;;;3.34;80.46;97248.78;5084874;28;20306;-65
2020/12/28 01:48:09;;;;;;;0.70;0.60;;;;;;;3.35;80.01;97248.66;5092140;28;20571;-65
2020/12/28 01:50:36;;;;;;;0.50;0.50;;;;;;;3.37;80.24;97249.38;5090862;28;20208;-65
2020/12/28 01:53:03;;;;;;;0.47;0.47;;;;;;;3.37;80.35;97252.00;5091910;28;20782;-65
2020/12/28 01:55:31;;;;;;;0.73;0.50;;;;;;;3.37;80.49;97249.38;5090912;28;20669;-66
2020/12/28 01:57:57;;;;;;;0.50;0.50;;;;;;;3.39;80.32;97257.13;5090866;28;20720;-67
2020/12/28 02:00:23;;;;;;;0.50;0.43;;;;;;;3.39;80.43;97257.13;5089658;28;20208;-64
2020/12/28 02:02:49;;;;;;;0.43;0.43;;;;;;;3.40;80.59;97251.69;5090575;28;20201;-65
2020/12/28 02:05:16;;;;;;;0.40;0.40;;;;;;;3.40;80.42;97249.06;5091445;28;20451;-64
2020/12/28 02:07:45;;;;;;;0.63;0.40;;;;;;;3.41;80.30;97250.72;5090178;28;20289;-65
2020/12/28 02:10:11;;;;;;;0.47;0.40;;;;;;;3.42;80.92;97248.94;5090476;28;20204;-65
2020/12/28 02:12:38;;;;;;;0.40;0.40;;;;;;;3.42;80.83;97247.13;5089665;28;20204;-69
2020/12/28 02:15:05;;;;;;;0.40;0.40;;;;;;;3.43;80.58;97248.81;5091819;28;20228;-65
2020/12/28 02:17:32;;;;;;;0.43;0.43;;;;;;;3.43;80.16;97246.16;5091670;28;20206;-65
2020/12/28 02:19:58;;;;;;;0.30;0.30;;;;;;;3.44;79.99;97244.38;5089581;28;20200;-65
2020/12/28 02:22:25;;;;;;;0.40;0.40;;;;;;;3.44;80.10;97242.56;5089966;28;20208;-66
2020/12/28 02:24:51;;;;;;;0.50;0.50;;;;;;;3.44;80.69;97239.13;5087404;28;20224;-65
2020/12/28 02:27:17;;;;;;;0.40;0.40;;;;;;;3.44;80.26;97237.31;5086510;28;20228;-65
2020/12/28 02:29:44;;;;;;;0.43;0.30;;;;;;;3.44;80.44;97239.94;5089303;28;20297;-65
2020/12/28 02:32:10;;;;;;;0.30;0.30;;;;;;;3.44;80.68;97237.31;5076659;28;20708;-65
2020/12/28 02:34:36;;;;;;;0.30;0.30;;;;;;;3.43;80.06;97243.53;5091136;28;20249;-65
2020/12/28 02:37:02;;;;;;;0.60;0.40;;;;;;;3.43;79.92;97243.53;5084509;28;20193;-65
2020/12/28 02:39:28;;;;;;;0.30;0.30;;;;;;;3.43;79.96;97251.44;5084769;28;20212;-64
2020/12/28 02:41:54;;;;;;;0.40;0.40;;;;;;;3.45;80.78;97253.94;5089545;28;20281;-65
2020/12/28 02:44:20;;;;;;;0.20;0.20;;;;;;;3.42;80.71;97244.50;5082534;28;20708;-64
2020/12/28 02:46:47;;;;;;;0.33;0.30;;;;;;;3.44;80.12;97257.53;5089481;28;20220;-65
2020/12/28 02:49:13;;;;;;;0.40;0.40;;;;;;;3.44;80.47;97247.84;5078096;28;20551;-65
2020/12/28 02:51:39;;;;;;;0.30;0.30;;;;;;;3.45;80.33;97257.41;5091506;28;20200;-65
2020/12/28 02:54:05;;;;;;;0.40;0.40;;;;;;;3.46;79.99;97256.44;5077052;28;20224;-65
2020/12/28 02:56:31;;;;;;;0.47;0.43;;;;;;;3.48;80.64;97251.88;5085526;28;20624;-65
2020/12/28 02:58:57;;;;;;;0.50;0.50;;;;;;;3.49;80.56;97250.06;5089083;28;20200;-65
2020/12/28 03:01:24;;;;;;;0.30;0.30;;;;;;;3.50;80.27;97246.47;5089266;28;20623;-65
2020/12/28 03:03:50;;;;;;;0.30;0.30;;;;;;;3.52;80.54;97243.72;5089635;28;20227;-64
2020/12/28 03:06:16;;;;;;;0.37;0.37;;;;;;;3.52;80.14;97235.81;5090264;28;20232;-65
2020/12/28 03:08:42;;;;;;;0.20;0.20;;;;;;;3.54;80.78;97247.88;5089370;28;20567;-64
2020/12/28 03:11:08;;;;;;;0.30;0.30;;;;;;;3.55;80.46;97240.81;5078071;28;20211;-65
2020/12/28 03:13:34;;;;;;;0.33;0.33;;;;;;;3.56;80.51;97235.41;5090684;28;20238;-64
2020/12/28 03:16:00;;;;;;;0.30;0.30;;;;;;;3.56;80.72;97224.06;5088576;28;20204;-64
2020/12/28 03:18:26;;;;;;;0.30;0.30;;;;;;;3.58;79.89;97224.75;5090907;28;20207;-66
2020/12/28 03:20:52;;;;;;;0.33;0.33;;;;;;;3.58;80.33;97212.44;5089547;28;20204;-66
2020/12/28 03:23:18;;;;;;;0.30;0.30;;;;;;;3.60;80.46;97220.16;5089003;28;20227;-64
2020/12/28 03:25:44;;;;;;;0.60;0.40;;;;;;;3.60;80.11;97213.09;5090329;28;20204;-66
2020/12/28 03:28:10;;;;;;;0.30;0.30;;;;;;;3.60;80.41;97218.38;5089262;28;20630;-65
2020/12/28 03:30:37;;;;;;;0.30;0.30;;;;;;;3.61;80.03;97206.88;5091391;28;20637;-65
2020/12/28 03:33:03;;;;;;;0.33;0.33;;;;;;;3.61;80.35;97206.88;5090519;28;20204;-66
2020/12/28 03:35:29;;;;;;;0.30;0.30;;;;;;;3.61;80.36;97212.13;5090068;28;20204;-64
2020/12/28 03:37:55;;;;;;;0.50;0.50;;;;;;;3.61;80.44;97214.75;5089091;28;20207;-66
2020/12/28 03:40:21;;;;;;;0.30;0.30;;;;;;;3.63;79.92;97217.25;5085801;28;20205;-67
2020/12/28 03:42:48;;;;;;;0.33;0.23;;;;;;;3.62;80.28;97216.44;5085836;28;20200;-67
2020/12/28 03:45:14;;;;;;;0.50;0.30;;;;;;;3.64;80.35;97217.13;5089764;28;20223;-66
2020/12/28 03:47:40;;;;;;;0.40;0.40;;;;;;;3.63;79.84;97212.84;5085714;28;20221;-64
2020/12/28 03:50:07;;;;;;;0.83;0.50;;;;;;;3.64;80.27;97221.56;5075637;28;20289;-66
2020/12/28 03:52:33;;;;;;;0.30;0.30;;;;;;;3.66;79.56;97219.63;5069497;28;20586;-65
2020/12/28 03:54:59;;;;;;;0.40;0.40;;;;;;;3.66;80.07;97228.34;5084799;28;20738;-65
2020/12/28 03:57:25;;;;;;;0.40;0.40;;;;;;;3.65;79.58;97224.06;5089884;28;20216;-62
2020/12/28 03:59:51;;;;;;;0.60;0.60;;;;;;;3.67;79.70;97216.84;5083757;28;20200;-63
2020/12/28 04:02:17;;;;;;;0.50;0.40;;;;;;;3.68;80.32;97226.41;5083032;28;20206;-66
2020/12/28 04:04:43;;;;;;;0.47;0.40;;;;;;;3.68;79.82;97233.47;5085953;28;20309;-64
2020/12/28 04:07:09;;;;;;;0.70;0.70;;;;;;;3.69;80.51;97227.25;5078917;28;20696;-65
2020/12/28 04:09:35;;;;;;;0.40;0.40;;;;;;;3.70;80.20;97231.53;5078262;28;20211;-65
2020/12/28 04:12:01;;;;;;;0.30;0.30;;;;;;;3.70;79.73;97229.75;5094237;28;20200;-65
2020/12/28 04:14:27;;;;;;;0.67;0.50;;;;;;;3.72;79.85;97224.34;5100924;22;20229;-62
2020/12/28 04:16:53;;;;;;;0.77;0.70;;;;;;;3.71;80.53;97223.50;5074685;28;20228;-64
2020/12/28 04:19:19;;;;;;;0.50;0.50;;;;;;;3.73;80.32;97218.13;5065090;28;20266;-64
2020/12/28 04:21:46;;;;;;;0.57;0.57;;;;;;;3.73;79.58;97218.13;5067308;28;20216;-64
2020/12/28 04:24:15;;;;;;;0.70;0.43;;;;;;;3.73;80.38;97218.13;5064256;28;20224;-64
2020/12/28 04:26:41;;;;;;;0.43;0.43;;;;;;;3.73;80.04;97218.13;5057289;28;20249;-64
2020/12/28 04:29:08;;;;;;;0.40;0.40;;;;;;;3.74;79.76;97209.25;5054459;28;20201;-64
2020/12/28 04:31:34;;;;;;;0.43;0.43;;;;;;;3.72;80.28;97206.75;5060637;28;20202;-63
2020/12/28 04:34:00;;;;;;;0.93;0.40;;;;;;;3.72;79.61;97216.44;5052855;28;20229;-64
2020/12/28 04:36:26;;;;;;;1.00;0.50;;;;;;;3.73;79.70;97231.28;5057631;28;20281;-64
2020/12/28 04:38:53;;;;;;;0.43;0.43;;;;;;;3.73;80.22;97223.38;5065667;28;20690;-65
2020/12/28 04:41:19;;;;;;;0.60;0.60;;;;;;;3.73;79.95;97218.13;5051478;28;20691;-64
2020/12/28 04:43:45;;;;;;;0.50;0.50;;;;;;;3.73;80.26;97223.38;5062980;28;20208;-64
2020/12/28 04:46:11;;;;;;;0.90;0.60;;;;;;;3.72;79.55;97209.38;5055692;28;20206;-64
2020/12/28 04:48:38;;;;;;;0.40;0.40;;;;;;;3.73;79.88;97218.13;5061053;28;20665;-64
2020/12/28 04:51:04;;;;;;;0.70;0.50;;;;;;;3.74;79.70;97225.03;5053182;28;20216;-64
2020/12/28 04:53:30;;;;;;;0.93;0.50;;;;;;;3.74;79.71;97230.31;5038695;28;20209;-64
2020/12/28 04:55:58;;;;;;;0.63;0.60;;;;;;;3.73;79.80;97218.13;5052925;28;20225;-64
2020/12/28 04:58:24;;;;;;;0.50;0.50;;;;;;;3.74;79.74;97212.72;5058252;28;20202;-64
2020/12/28 05:01:00;;;;;;;0.50;0.50;;;;;;;3.75;79.83;97213.53;5051138;28;20221;-64
2020/12/28 05:03:27;;;;;;;0.80;0.80;;;;;;;3.76;79.82;97217.84;5050023;28;20201;-64
2020/12/28 05:05:54;;;;;;;0.87;0.50;;;;;;;3.75;80.29;97216.19;5053350;28;20228;-64
2020/12/28 05:08:20;;;;;;;0.73;0.50;;;;;;;3.77;79.71;97203.69;5055648;28;20774;-64
2020/12/28 05:10:47;;;;;;;0.53;0.50;;;;;;;3.77;80.02;97195.78;5051321;28;20663;-62
2020/12/28 05:13:17;;;;;;;0.50;0.50;;;;;;;3.77;79.71;97193.16;5051179;28;20677;-62
2020/12/28 05:15:47;;;;;;;0.60;0.40;;;;;;;3.77;79.64;97203.69;5052517;28;20237;-64
2020/12/28 05:18:15;;;;;;;0.63;0.60;;;;;;;3.78;79.97;97221.13;5052702;28;20202;-64
2020/12/28 05:20:43;;;;;;;0.70;0.50;;;;;;;3.77;80.33;97222.09;5052524;28;20204;-64
2020/12/28 05:23:09;;;;;;;0.53;0.53;;;;;;;3.77;80.28;97214.22;5048461;28;20666;-63
2020/12/28 05:25:36;;;;;;;0.60;0.60;;;;;;;3.77;80.26;97230.00;5055449;28;20232;-65
2020/12/28 05:28:04;;;;;;;0.70;0.70;;;;;;;3.77;80.44;97235.25;5053860;28;20375;-64
2020/12/28 05:30:32;;;;;;;0.50;0.50;;;;;;;3.78;80.63;97242.19;5050363;28;20923;-64
2020/12/28 05:33:03;;;;;;;0.50;0.50;;;;;;;3.80;80.49;97242.88;5051254;28;20206;-63
2020/12/28 05:35:29;;;;;;;1.50;0.67;;;;;;;3.81;80.13;97232.22;5052621;28;20232;-64
2020/12/28 05:37:56;;;;;;;0.60;0.60;;;;;;;3.81;79.88;97226.13;5051158;28;20652;-64
2020/12/28 05:40:23;;;;;;;2.47;1.43;;;;;;;3.83;80.48;97235.56;5051654;28;20670;-64
2020/12/28 05:42:50;;;;;;;0.50;0.50;;;;;;;3.83;79.86;97235.56;5049623;28;20213;-64
2020/12/28 05:45:16;;;;;;;0.63;0.60;;;;;;;3.86;79.98;97223.94;5052023;28;20744;-64
2020/12/28 05:47:49;;;;;;;0.40;0.40;;;;;;;3.88;79.98;97208.81;5049946;28;20236;-64
2020/12/28 05:50:19;;;;;;;0.50;0.50;;;;;;;3.88;80.42;97195.66;5067354;28;20643;-64
2020/12/28 05:52:51;;;;;;;0.60;0.50;;;;;;;3.90;79.89;97193.72;5064078;28;20205;-64
2020/12/28 05:55:20;;;;;;;0.77;0.60;;;;;;;3.90;80.01;97180.56;5065302;28;20275;-64
2020/12/28 05:57:46;;;;;;;0.83;0.70;;;;;;;3.90;80.63;97180.56;5052181;28;20205;-64
2020/12/28 06:00:13;;;;;;;0.87;0.70;;;;;;;3.90;79.93;97180.56;5051376;28;20210;-64
2020/12/28 06:02:40;;;;;;;0.77;0.70;;;;;;;3.90;79.96;97193.72;5050087;28;20201;-64
2020/12/28 06:05:09;;;;;;;0.67;0.67;;;;;;;3.89;80.47;97207.84;5050973;28;20706;-64
2020/12/28 06:07:36;;;;;;;0.60;0.50;;;;;;;3.88;79.68;97214.09;5066276;28;20286;-64
2020/12/28 06:10:03;;;;;;;0.67;0.53;;;;;;;3.89;79.94;97218.38;5062798;28;20215;-64
2020/12/28 06:12:29;;;;;;;0.70;0.70;;;;;;;3.88;80.06;97219.34;5049025;28;20263;-63
2020/12/28 06:14:55;;;;;;;0.70;0.70;;;;;;;3.87;79.74;97217.69;5051698;28;20233;-64
2020/12/28 06:17:32;;;;;;;0.60;0.50;;;;;;;3.87;80.23;97212.44;5051308;28;20193;-64
2020/12/28 06:20:04;;;;;;;0.73;0.40;;;;;;;3.86;80.46;97212.56;5049270;28;20205;-64
2020/12/28 06:22:32;;;;;;;0.40;0.40;;;;;;;3.86;79.93;97220.47;5050352;28;20220;-64
2020/12/28 06:25:00;;;;;;;0.87;0.50;;;;;;;3.83;80.40;97227.66;5050082;28;21366;-64
2020/12/28 06:27:32;;;;;;;1.43;0.70;;;;;;;3.82;80.05;97240.97;5051938;28;20301;-63
2020/12/28 06:30:08;;;;;;;0.60;0.60;;;;;;;3.79;80.25;97239.44;5049006;28;20206;-64
2020/12/28 06:32:34;;;;;;;1.10;0.70;;;;;;;3.77;80.17;97240.53;5049858;28;20205;-66
2020/12/28 06:35:02;;;;;;;0.70;0.70;;;;;;;3.76;80.08;97241.53;5050355;28;20221;-64
2020/12/28 06:37:28;;;;;;;1.20;0.90;;;;;;;3.74;80.55;97243.47;5057153;28;20201;-62
2020/12/28 06:39:58;;;;;;;0.67;0.63;;;;;;;3.73;79.47;97249.69;5051407;28;20217;-63
2020/12/28 06:42:24;;;;;;;0.60;0.60;;;;;;;3.72;80.32;97251.50;5042798;28;20729;-63
2020/12/28 06:44:51;;;;;;;0.73;0.73;;;;;;;3.70;80.34;97240.28;5049602;28;20217;-64
2020/12/28 06:47:21;;;;;;;0.77;0.77;;;;;;;3.69;80.35;97238.59;5056073;28;20225;-64
2020/12/28 06:49:48;;;;;;;0.63;0.60;;;;;;;3.69;80.29;97232.50;5059793;28;20633;-64
2020/12/28 06:52:15;;;;;;;1.10;0.70;;;;;;;3.68;80.54;97231.69;5054042;28;20201;-64
2020/12/28 06:54:41;;;;;;;0.70;0.70;;;;;;;3.67;80.04;97226.56;5052028;28;20221;-64
2020/12/28 06:57:09;;;;;;;0.83;0.80;;;;;;;3.66;80.37;97220.44;5039057;28;20285;-64
2020/12/28 06:59:35;;;;;;;0.90;0.70;;;;;;;3.66;80.56;97217.00;5036414;28;20259;-64
2020/12/28 07:02:03;;;;;;;0.90;0.80;;;;;;;3.64;80.27;97225.03;5050985;28;20205;-64
2020/12/28 07:04:33;;;;;;;0.73;0.67;;;;;;;3.64;80.18;97226.81;5049157;28;20310;-63
2020/12/28 07:06:59;;;;;;;0.50;0.50;;;;;;;3.62;80.34;97231.38;5052858;28;20229;-63
2020/12/28 07:09:25;;;;;;;1.27;0.70;;;;;;;3.63;80.25;97227.78;5049190;28;20212;-63
2020/12/28 07:11:51;;;;;;;1.00;0.90;;;;;;;3.63;80.84;97238.31;5050054;28;20232;-64
2020/12/28 07:14:20;;;;;;;0.67;0.60;;;;;;;3.61;80.39;97240.25;5050131;28;20228;-63
2020/12/28 07:16:46;;;;;;;0.83;0.83;;;;;;;3.64;80.67;97250.50;5050269;28;20208;-64
2020/12/28 07:19:12;;;;;;;0.77;0.77;;;;;;;3.63;80.92;97246.22;5049621;28;20254;-64
2020/12/28 07:21:38;;;;;;;1.10;1.00;;;;;;;3.64;80.25;97250.50;5037902;28;20201;-63
2020/12/28 07:24:07;;;;;;;0.80;0.80;;;;;;;3.61;81.16;97241.06;5046125;28;20278;-63
2020/12/28 07:26:33;;;;;;;1.50;1.10;;;;;;;3.61;80.12;97243.72;5047292;28;20206;-63
2020/12/28 07:28:59;;;;;;;1.70;0.80;;;;;;;3.60;80.57;97249.09;5054154;28;20204;-62
2020/12/28 07:31:26;;;;;;;0.87;0.70;;;;;;;3.59;80.43;97257.97;5043230;28;20198;-63
2020/12/28 07:33:52;;;;;;;1.13;1.00;;;;;;;3.58;80.22;97275.59;5044201;28;20257;-63
2020/12/28 07:36:21;;;;;;;1.47;1.20;;;;;;;3.57;80.93;97280.97;5045068;28;20565;-64
2020/12/28 07:38:49;;;;;;;0.83;0.80;;;;;;;3.55;80.80;97273.22;5039679;28;20197;-63
2020/12/28 07:41:16;;;;;;;1.27;1.10;;;;;;;3.55;80.42;97278.47;5034065;28;20246;-64
2020/12/28 07:43:49;;;;;;;1.87;1.50;;;;;;;3.53;80.39;97264.63;5041096;28;20206;-63
2020/12/28 07:46:21;;;;;;;1.90;1.67;;;;;;;3.53;81.03;97263.78;5039223;28;20224;-65
2020/12/28 07:48:52;;;;;;;1.97;1.60;;;;;;;3.52;80.33;97272.66;5037021;28;20659;-64
2020/12/28 07:51:20;;;;;;;2.27;1.73;;;;;;;3.50;80.22;97275.41;5044677;28;20198;-65
2020/12/28 07:53:49;;;;;;;1.47;1.20;;;;;;;3.50;80.79;97283.31;5055310;28;20204;-65
2020/12/28 07:56:22;;;;;;;1.73;1.53;;;;;;;3.47;80.98;97275.69;5048564;28;20684;-65
2020/12/28 07:58:56;;;;;;;3.13;1.80;;;;;;;3.47;80.79;97278.31;5048118;28;20623;-65
2020/12/28 08:01:28;;;;;;;2.17;1.67;;;;;;;3.45;81.26;97281.06;5042658;28;20205;-64
2020/12/28 08:04:00;;;;;;;1.60;1.20;;;;;;;3.45;80.46;97283.69;5053842;28;20275;-65
2020/12/28 08:06:26;;;;;;;2.00;1.30;;;;;;;3.44;80.31;97291.72;5047680;28;20580;-66
2020/12/28 08:08:59;;;;;;;1.40;1.10;;;;;;;3.45;80.20;97290.75;5038506;28;20206;-64
2020/12/28 08:11:29;;;;;;;1.60;1.50;;;;;;;3.44;80.42;97300.44;5045354;28;20220;-64
2020/12/28 08:13:55;;;;;;;2.47;1.70;;;;;;;3.44;80.54;97304.88;5049502;28;20205;-65
2020/12/28 08:16:22;;;;;;;3.10;2.37;;;;;;;3.44;80.77;97304.88;5038347;28;20217;-65
2020/12/28 08:18:49;;;;;;;2.80;1.40;;;;;;;3.45;80.35;97303.91;5041581;28;20689;-64
2020/12/28 08:21:16;;;;;;;1.70;1.20;;;;;;;3.47;81.10;97307.25;5051974;28;20213;-65
2020/12/28 08:23:50;;;;;;;1.10;1.00;;;;;;;3.50;81.39;97301.72;5041515;28;20557;-65
2020/12/28 08:26:21;;;;;;;1.40;1.30;;;;;;;3.53;80.63;97304.09;5041874;28;20206;-65
2020/12/28 08:28:48;;;;;;;1.40;1.30;;;;;;;3.56;80.64;97295.09;5046091;28;20225;-65
2020/12/28 08:31:14;;;;;;;1.00;1.00;;;;;;;3.57;80.58;97289.69;5045545;28;20209;-62
2020/12/28 08:33:40;;;;;;;2.17;1.80;;;;;;;3.60;81.13;97292.03;5045479;28;20670;-63
2020/12/28 08:36:06;;;;;;;1.57;1.30;;;;;;;3.63;81.26;97283.88;5043440;28;20204;-63
2020/12/28 08:38:33;;;;;;;1.70;1.17;;;;;;;3.66;81.45;97295.94;5041210;28;20562;-65
2020/12/28 08:41:00;;;;;;;1.27;1.17;;;;;;;3.68;80.99;97299.25;5043764;28;20214;-66
2020/12/28 08:43:26;;;;;;;1.50;1.37;;;;;;;3.71;81.14;97293.75;5043742;28;20202;-65
2020/12/28 08:46:07;;;;;;;1.27;1.17;;;;;;;3.75;80.67;97310.94;5046567;28;20486;-65
2020/12/28 08:48:33;;;;;;;1.40;1.30;;;;;;;3.78;80.92;97310.63;5040724;28;20233;-64
2020/12/28 08:50:59;;;;;;;1.43;1.13;;;;;;;3.80;80.55;97306.06;5043554;28;20208;-65
2020/12/28 08:53:25;;;;;;;0.80;0.80;;;;;;;3.81;80.99;97319.09;5048650;28;20205;-65
2020/12/28 08:56:01;;;;;;;1.97;1.17;;;;;;;3.81;80.16;97323.53;5050684;28;20345;-64
2020/12/28 08:58:28;;;;;;;2.97;2.10;;;;;;;3.82;80.40;97322.56;5039053;28;20206;-64
2020/12/28 09:00:54;;;;;;;3.30;1.93;;;;;;;3.83;80.95;97325.06;5043140;28;20210;-65
2020/12/28 09:03:20;;;;;;;2.00;1.50;;;;;;;3.85;80.45;97330.19;5051489;28;21177;-65
2020/12/28 09:05:46;;;;;;;2.47;1.80;;;;;;;3.86;80.31;97328.38;5046502;28;20305;-66
2020/12/28 09:08:12;;;;;;;1.70;1.40;;;;;;;3.88;80.58;97329.09;5050412;28;20233;-65
2020/12/28 09:10:38;;;;;;;2.03;1.40;;;;;;;3.88;80.61;97332.56;5053226;28;20212;-65
2020/12/28 09:13:05;;;;;;;2.57;1.70;;;;;;;3.89;80.58;97322.84;5050901;28;20251;-65
2020/12/28 09:15:31;;;;;;;2.80;1.97;;;;;;;3.89;80.54;97318.41;5052972;28;20657;-65
2020/12/28 09:17:57;;;;;;;1.70;1.00;;;;;;;3.88;80.46;97322.03;5051699;28;20214;-65
2020/12/28 09:20:23;;;;;;;2.13;1.17;;;;;;;3.88;80.03;97324.66;5053618;28;20204;-65
2020/12/28 09:22:49;;;;;;;0.73;0.73;;;;;;;3.88;80.02;97329.91;5052309;28;20206;-63
2020/12/28 09:25:16;;;;;;;2.00;1.30;;;;;;;3.90;80.15;97327.97;5033741;28;20233;-63
2020/12/28 09:27:42;;;;;;;2.63;1.30;;;;;;;3.89;79.97;97320.22;5046507;28;20236;-64
2020/12/28 09:30:09;;;;;;;1.93;1.30;;;;;;;3.91;80.43;97321.75;5051240;28;20202;-65
2020/12/28 09:32:35;;;;;;;3.07;2.00;;;;;;;3.91;80.36;97326.19;5049798;28;20561;-65
2020/12/28 09:35:01;;;;;;;2.30;1.60;;;;;;;3.92;80.34;97333.94;5051502;28;20596;-65
2020/12/28 09:37:27;;;;;;;3.10;2.10;;;;;;;3.94;79.57;97331.97;5051527;28;20273;-65
2020/12/28 09:39:53;;;;;;;5.97;3.97;;;;;;;3.97;80.41;97333.50;5038631;28;20216;-64
2020/12/28 09:42:19;;;;;;;3.57;3.17;;;;;;;3.99;80.01;97331.59;5052012;28;20251;-65
2020/12/28 09:44:45;;;;;;;4.87;3.00;;;;;;;4.01;80.07;97343.66;5044620;28;20221;-65
2020/12/28 09:47:12;;;;;;;1.50;1.13;;;;;;;4.05;79.54;97338.94;5052268;28;20232;-65
2020/12/28 09:49:38;;;;;;;1.60;1.47;;;;;;;4.07;79.38;97348.38;5049446;28;20205;-64
2020/12/28 09:52:04;;;;;;;1.80;1.23;;;;;;;4.11;79.82;97354.19;5052087;28;20214;-65
2020/12/28 09:54:30;;;;;;;2.57;1.47;;;;;;;4.13;80.05;97358.34;5050434;28;20225;-63
2020/12/28 09:56:56;;;;;;;1.80;1.70;;;;;;;4.15;79.93;97366.94;5040162;28;20206;-65
2020/12/28 09:59:22;;;;;;;3.17;2.23;;;;;;;4.17;79.85;97367.63;5041626;28;20209;-64
2020/12/28 10:01:48;;;;;;;2.00;1.00;;;;;;;4.23;79.76;97357.53;5038549;28;20202;-64
2020/12/28 10:04:15;;;;;;;0.87;0.83;;;;;;;4.27;79.52;97361.56;5042108;28;20775;-66
2020/12/28 10:06:41;;;;;;;0.80;0.80;;;;;;;4.33;79.11;97359.19;5047271;28;20586;-65
2020/12/28 10:09:08;;;;;;;1.30;0.80;;;;;;;4.39;79.22;97352.53;5046005;28;20201;-65
2020/12/28 10:11:35;;;;;;;0.80;0.80;;;;;;;4.46;79.23;97343.13;5042900;28;20210;-65
2020/12/28 10:16:44;;;;;;;0.80;0.77;;;;;;;4.55;79.00;97344.91;5067954;28;20219;-65
2020/12/28 10:19:10;;;;;;;1.13;1.00;;;;;;;4.59;79.09;97348.09;5065847;28;20208;-66
2020/12/28 10:21:37;;;;;;;0.60;0.60;;;;;;;4.60;78.46;97340.06;5069189;28;20250;-63
2020/12/28 10:24:04;;;;;;;1.03;0.87;;;;;;;4.63;78.45;97339.78;5063506;28;20215;-66
2020/12/28 10:26:30;;;;;;;0.97;0.90;;;;;;;4.66;78.24;97336.84;5037202;28;20256;-65
2020/12/28 10:28:58;;;;;;;1.37;0.90;;;;;;;4.66;78.58;97347.38;5046279;28;20221;-65
2020/12/28 10:31:24;;;;;;;1.83;0.97;;;;;;;4.65;78.12;97340.47;5051048;28;20220;-64
2020/12/28 10:33:50;;;;;;;0.97;0.77;;;;;;;4.66;77.88;97343.94;5039325;28;20225;-67
2020/12/28 10:36:19;;;;;;;1.13;1.00;;;;;;;4.65;77.73;97337.00;5042603;28;20708;-66
2020/12/28 10:38:46;;;;;;;1.60;1.10;;;;;;;4.65;78.08;97323.81;5033793;28;20611;-67
2020/12/28 10:41:13;;;;;;;1.47;1.10;;;;;;;4.66;77.87;97326.28;5031823;28;20209;-64
2020/12/28 10:43:39;;;;;;;1.77;1.60;;;;;;;4.66;77.40;97328.13;5047949;28;20212;-63
2020/12/28 10:46:06;;;;;;;0.90;0.90;;;;;;;4.65;77.38;97337.84;5040376;28;20226;-64
2020/12/28 10:48:33;;;;;;;1.93;1.10;;;;;;;4.62;77.45;97337.28;5040776;28;20685;-65
2020/12/28 10:50:59;;;;;;;1.40;1.30;;;;;;;4.59;77.33;97340.19;5039069;28;20264;-64
2020/12/28 10:53:25;;;;;;;0.97;0.87;;;;;;;4.56;77.22;97338.66;5041411;28;20292;-66
2020/12/28 10:55:52;;;;;;;0.60;0.60;;;;;;;4.55;77.10;97329.09;5047275;28;20641;-64
2020/12/28 10:58:18;;;;;;;1.03;0.77;;;;;;;4.52;77.03;97337.28;5042050;28;20584;-64
2020/12/28 11:00:44;;;;;;;1.80;0.80;;;;;;;4.50;77.28;97331.31;5049930;28;20227;-64
2020/12/28 11:03:10;;;;;;;1.67;1.03;;;;;;;4.50;77.24;97341.84;5046610;28;20201;-66
2020/12/28 11:05:36;;;;;;;1.10;0.90;;;;;;;4.48;76.77;97331.44;5051001;28;20304;-64
2020/12/28 11:08:02;;;;;;;1.37;1.20;;;;;;;4.47;77.20;97344.78;5038360;28;20248;-66
2020/12/28 11:10:28;;;;;;;1.20;1.10;;;;;;;4.45;76.87;97342.28;5039589;28;20256;-66
2020/12/28 11:12:55;;;;;;;1.33;1.20;;;;;;;4.45;76.49;97354.63;5044067;28;20198;-65
2020/12/28 11:15:21;;;;;;;1.00;0.90;;;;;;;4.44;76.39;97356.44;5039744;28;20234;-65
2020/12/28 11:17:47;;;;;;;2.30;1.20;;;;;;;4.45;76.52;97354.63;5039156;28;20655;-65
2020/12/28 11:20:15;;;;;;;1.90;0.93;;;;;;;4.47;76.47;97360.59;5043858;28;20205;-66
2020/12/28 11:22:42;;;;;;;1.27;1.17;;;;;;;4.49;76.82;97362.09;5043113;28;20242;-65
2020/12/28 11:25:08;;;;;;;6.63;4.50;;;;;;;4.50;77.06;97352.38;5046005;28;20274;-68
2020/12/28 11:27:34;;;;;;;2.53;2.30;;;;;;;4.53;76.15;97357.38;5049138;28;20299;-66
2020/12/28 11:30:00;;;;;;;2.67;1.73;;;;;;;4.56;76.59;97366.81;5042200;28;20567;-64
2020/12/28 11:32:27;;;;;;;2.23;1.50;;;;;;;4.58;76.61;97363.06;5046219;28;20294;-65
2020/12/28 11:34:53;;;;;;;1.63;1.30;;;;;;;4.61;76.25;97354.06;5053088;28;20229;-66
2020/12/28 11:37:19;;;;;;;2.30;1.83;;;;;;;4.64;76.41;97362.53;5052282;28;20216;-65
2020/12/28 11:39:45;;;;;;;3.30;2.00;;;;;;;4.68;76.01;97363.06;5053603;28;20205;-66
2020/12/28 11:42:12;;;;;;;3.07;1.80;;;;;;;4.70;76.48;97361.09;5052866;28;20202;-66